Terminal Aerodrome Forecast
Issued by NWS

Home | Current Version | Previous Version | Text Only | Print | Product List | Glossary On
Versions: 1 2 3 4 5 6 7 8 9 10 11 12 13 14 15 16 17 18 19 20 21 22 23 24
000
FTUS45 KBOU 220537
TAFBJC
TAF
KBJC 220537Z 2206/2306 VRB05KT P6SM FEW120 BKN220
     FM221000 01006KT P6SM SCT100 BKN220
      TEMPO 2212/2214 5SM BR BKN006
     FM221400 03006KT 4SM BR OVC004
     FM221700 07006KT P6SM SCT080 BKN140
     FM222300 13007KT P6SM SCT080 BKN140=

USA.gov is the U.S. government's official web portal to all federal, state and local government web resources and services.